Asherville, Missouri
Current Conditions -  °F | °C
As of 1:53 PM on Thursday 30 Oct 2014 (Local Time) from KPOF Reporting Station
Clear Clear  
Wind Chill: 18°   Ceiling: Unl
Heat Index: 18°   Visibility: 10mi
Dew Point:   Wind: 8mph
Humidity: 39%   Direction: 230°SW
Pressure: 30.07"   Gusts: NA
Location:  36.9506°N, 90.1582°W
Report Text: KPOF 301853Z AUTO 23007KT 10SM CLR 18/04 A3007 RMK AO2 SLP183 T01830039 $
Loading
Personal Weather Stations






























Interactive Weather Map
Tropical Storm Tracking
New forecast layout! Learn more

10-Day Weather Forecast

Advertisements
Track Severe Weather on mobile